sensor_id;sensor_type;location;lat;lon;timestamp;pressure;altitude;pressure_sealevel;temperature;humidity
45541;BME280;31265;49.680;8.608;2023-04-02T00:01:53;99742.75;;;8.11;100.00
45541;BME280;31265;49.680;8.608;2023-04-02T00:04:24;99741.97;;;8.11;100.00
45541;BME280;31265;49.680;8.608;2023-04-02T00:07:24;99747.34;;;8.09;100.00
45541;BME280;31265;49.680;8.608;2023-04-02T00:09:59;99747.50;;;8.11;100.00
45541;BME280;31265;49.680;8.608;2023-04-02T00:12:30;99752.47;;;8.12;100.00
45541;BME280;31265;49.680;8.608;2023-04-02T00:15:02;99755.66;;;8.09;100.00
45541;BME280;31265;49.680;8.608;2023-04-02T00:17:32;99753.44;;;8.07;100.00
45541;BME280;31265;49.680;8.608;2023-04-02T00:20:05;99753.97;;;8.06;100.00
45541;BME280;31265;49.680;8.608;2023-04-02T00:22:42;99771.13;;;8.04;100.00
45541;BME280;31265;49.680;8.608;2023-04-02T00:25:15;99774.25;;;8.01;100.00
45541;BME280;31265;49.680;8.608;2023-04-02T00:27:47;99772.97;;;8.02;100.00
45541;BME280;31265;49.680;8.608;2023-04-02T00:30:17;99769.66;;;8.03;100.00
45541;BME280;31265;49.680;8.608;2023-04-02T00:32:48;99767.47;;;8.02;100.00
45541;BME280;31265;49.680;8.608;2023-04-02T00:35:25;99772.59;;;8.05;100.00
45541;BME280;31265;49.680;8.608;2023-04-02T00:37:58;99777.19;;;8.03;100.00
45541;BME280;31265;49.680;8.608;2023-04-02T00:40:30;99773.72;;;8.02;100.00
45541;BME280;31265;49.680;8.608;2023-04-02T00:43:04;99771.50;;;8.01;100.00
45541;BME280;31265;49.680;8.608;2023-04-02T00:45:37;99774.06;;;7.98;100.00
45541;BME280;31265;49.680;8.608;2023-04-02T00:48:19;99777.78;;;8.01;100.00
45541;BME280;31265;49.680;8.608;2023-04-02T00:50:53;99777.78;;;8.01;100.00
45541;BME280;31265;49.680;8.608;2023-04-02T00:53:29;99779.44;;;7.96;100.00
45541;BME280;31265;49.680;8.608;2023-04-02T00:56:03;99778.69;;;7.96;100.00
45541;BME280;31265;49.680;8.608;2023-04-02T00:58:49;99784.22;;;7.96;100.00
45541;BME280;31265;49.680;8.608;2023-04-02T01:01:24;99778.53;;;7.94;100.00
45541;BME280;31265;49.680;8.608;2023-04-02T01:04:04;99782.94;;;7.97;100.00
45541;BME280;31265;49.680;8.608;2023-04-02T01:06:36;99780.00;;;7.95;100.00
45541;BME280;31265;49.680;8.608;2023-04-02T01:09:20;99785.53;;;7.95;100.00
45541;BME280;31265;49.680;8.608;2023-04-02T01:12:25;99786.25;;;7.95;100.00
45541;BME280;31265;49.680;8.608;2023-04-02T01:15:09;99788.47;;;7.97;100.00
45541;BME280;31265;49.680;8.608;2023-04-02T01:17:54;99786.97;;;8.04;100.00
45541;BME280;31265;49.680;8.608;2023-04-02T01:20:49;99788.44;;;8.05;100.00
45541;BME280;31265;49.680;8.608;2023-04-02T01:23:29;99786.06;;;8.01;100.00
45541;BME280;31265;49.680;8.608;2023-04-02T01:26:11;99788.06;;;8.01;100.00
45541;BME280;31265;49.680;8.608;2023-04-02T01:29:00;99788.47;;;7.97;100.00
45541;BME280;31265;49.680;8.608;2023-04-02T01:31:31;99792.50;;;7.96;100.00
45541;BME280;31265;49.680;8.608;2023-04-02T01:34:02;99799.34;;;7.95;100.00
45541;BME280;31265;49.680;8.608;2023-04-02T01:36:39;99794.00;;;7.97;100.00
45541;BME280;31265;49.680;8.608;2023-04-02T01:39:18;99793.81;;;7.95;100.00
45541;BME280;31265;49.680;8.608;2023-04-02T01:41:53;99804.84;;;7.95;100.00
45541;BME280;31265;49.680;8.608;2023-04-02T01:44:31;99799.69;;;7.99;100.00
45541;BME280;31265;49.680;8.608;2023-04-02T01:47:09;99814.59;;;7.96;100.00
45541;BME280;31265;49.680;8.608;2023-04-02T01:49:40;99813.16;;;7.95;100.00
45541;BME280;31265;49.680;8.608;2023-04-02T01:52:12;99814.09;;;7.90;100.00
45541;BME280;31265;49.680;8.608;2023-04-02T01:54:44;99821.06;;;7.91;100.00
45541;BME280;31265;49.680;8.608;2023-04-02T01:57:13;99824.94;;;7.88;100.00
45541;BME280;31265;49.680;8.608;2023-04-02T01:59:44;99825.69;;;7.88;100.00
45541;BME280;31265;49.680;8.608;2023-04-02T02:02:13;99830.47;;;7.88;100.00
45541;BME280;31265;49.680;8.608;2023-04-02T02:04:42;99829.19;;;7.89;100.00
45541;BME280;31265;49.680;8.608;2023-04-02T02:07:14;99834.53;;;7.87;100.00
45541;BME280;31265;49.680;8.608;2023-04-02T02:09:47;99844.09;;;7.86;100.00
45541;BME280;31265;49.680;8.608;2023-04-02T02:12:17;99830.09;;;7.84;100.00
45541;BME280;31265;49.680;8.608;2023-04-02T02:14:48;99836.00;;;7.88;100.00
45541;BME280;31265;49.680;8.608;2023-04-02T02:17:26;99838.75;;;7.88;100.00
45541;BME280;31265;49.680;8.608;2023-04-02T02:19:57;99846.13;;;7.85;100.00
45541;BME280;31265;49.680;8.608;2023-04-02T02:22:29;99856.44;;;7.85;100.00
45541;BME280;31265;49.680;8.608;2023-04-02T02:25:01;99854.81;;;7.82;100.00
45541;BME280;31265;49.680;8.608;2023-04-02T02:28:02;99860.47;;;7.84;100.00
45541;BME280;31265;49.680;8.608;2023-04-02T02:30:40;99853.13;;;7.86;100.00
45541;BME280;31265;49.680;8.608;2023-04-02T02:33:16;99855.50;;;7.90;100.00
45541;BME280;31265;49.680;8.608;2023-04-02T02:35:51;99856.44;;;7.85;100.00
45541;BME280;31265;49.680;8.608;2023-04-02T02:38:52;99859.03;;;7.83;100.00
45541;BME280;31265;49.680;8.608;2023-04-02T02:41:35;99870.06;;;7.83;100.00
45541;BME280;31265;49.680;8.608;2023-04-02T02:44:10;99865.47;;;7.85;100.00
45541;BME280;31265;49.680;8.608;2023-04-02T02:46:49;99873.56;;;7.83;100.00
45541;BME280;31265;49.680;8.608;2023-04-02T02:49:24;99875.59;;;7.83;100.00
45541;BME280;31265;49.680;8.608;2023-04-02T02:51:59;99875.59;;;7.83;100.00
45541;BME280;31265;49.680;8.608;2023-04-02T02:54:35;99872.09;;;7.82;100.00
45541;BME280;31265;49.680;8.608;2023-04-02T02:57:10;99867.31;;;7.83;100.00
45541;BME280;31265;49.680;8.608;2023-04-02T02:59:41;99885.34;;;7.84;100.00
45541;BME280;31265;49.680;8.608;2023-04-02T03:02:14;99881.31;;;7.85;100.00
45541;BME280;31265;49.680;8.608;2023-04-02T03:04:46;99890.88;;;7.84;100.00
45541;BME280;31265;49.680;8.608;2023-04-02T03:07:18;99892.91;;;7.83;100.00
45541;BME280;31265;49.680;8.608;2023-04-02T03:09:51;99894.19;;;7.90;100.00
45541;BME280;31265;49.680;8.608;2023-04-02T03:12:33;99898.06;;;7.87;100.00
45541;BME280;31265;49.680;8.608;2023-04-02T03:15:12;99902.09;;;7.86;100.00
45541;BME280;31265;49.680;8.608;2023-04-02T03:17:49;99908.94;;;7.85;100.00
45541;BME280;31265;49.680;8.608;2023-04-02T03:20:26;99907.09;;;7.80;100.00
45541;BME280;31265;49.680;8.608;2023-04-02T03:23:02;99907.81;;;7.88;100.00
45541;BME280;31265;49.680;8.608;2023-04-02T03:25:38;99905.25;;;7.90;100.00
45541;BME280;31265;49.680;8.608;2023-04-02T03:28:13;99916.09;;;7.88;100.00
45541;BME280;31265;49.680;8.608;2023-04-02T03:30:47;99918.13;;;7.87;100.00
45541;BME280;31265;49.680;8.608;2023-04-02T03:33:24;99916.28;;;7.90;100.00
45541;BME280;31265;49.680;8.608;2023-04-02T03:35:59;99929.38;;;7.89;100.00
45541;BME280;31265;49.680;8.608;2023-04-02T03:38:39;99931.75;;;7.85;100.00
45541;BME280;31265;49.680;8.608;2023-04-02T03:41:15;99936.53;;;7.85;100.00
45541;BME280;31265;49.680;8.608;2023-04-02T03:43:46;99939.31;;;7.85;100.00
45541;BME280;31265;49.680;8.608;2023-04-02T03:46:23;99936.00;;;7.86;100.00
45541;BME280;31265;49.680;8.608;2023-04-02T03:48:58;99943.53;;;7.86;100.00
45541;BME280;31265;49.680;8.608;2023-04-02T03:51:32;99947.59;;;7.85;100.00
45541;BME280;31265;49.680;8.608;2023-04-02T03:54:02;99957.91;;;7.84;100.00
45541;BME280;31265;49.680;8.608;2023-04-02T03:56:35;99956.44;;;7.83;100.00
45541;BME280;31265;49.680;8.608;2023-04-02T03:59:15;99961.22;;;7.83;100.00
45541;BME280;31265;49.680;8.608;2023-04-02T04:01:52;99964.91;;;7.85;100.00
45541;BME280;31265;49.680;8.608;2023-04-02T04:04:26;99959.38;;;7.85;100.00
45541;BME280;31265;49.680;8.608;2023-04-02T04:06:57;99964.16;;;7.85;100.00
45541;BME280;31265;49.680;8.608;2023-04-02T04:09:29;99966.75;;;7.83;100.00
45541;BME280;31265;49.680;8.608;2023-04-02T04:12:08;99980.56;;;7.83;100.00
45541;BME280;31265;49.680;8.608;2023-04-02T04:14:41;99984.63;;;7.82;100.00
45541;BME280;31265;49.680;8.608;2023-04-02T04:17:15;99985.69;;;7.79;100.00
45541;BME280;31265;49.680;8.608;2023-04-02T04:20:00;99986.63;;;7.81;100.00
45541;BME280;31265;49.680;8.608;2023-04-02T04:22:34;99991.59;;;7.83;100.00
45541;BME280;31265;49.680;8.608;2023-04-02T04:25:21;99993.97;;;7.79;100.00
45541;BME280;31265;49.680;8.608;2023-04-02T04:28:02;99994.34;;;7.75;100.00
45541;BME280;31265;49.680;8.608;2023-04-02T04:30:46;100005.59;;;7.77;100.00
45541;BME280;31265;49.680;8.608;2023-04-02T04:33:21;100002.66;;;7.75;100.00
45541;BME280;31265;49.680;8.608;2023-04-02T04:35:58;100008.16;;;7.75;100.00
45541;BME280;31265;49.680;8.608;2023-04-02T04:38:33;100015.72;;;7.74;100.00
45541;BME280;31265;49.680;8.608;2023-04-02T04:41:12;100012.38;;;7.76;100.00
45541;BME280;31265;49.680;8.608;2023-04-02T04:43:50;100027.50;;;7.75;100.00
45541;BME280;31265;49.680;8.608;2023-04-02T04:46:26;100027.69;;;7.77;100.00
45541;BME280;31265;49.680;8.608;2023-04-02T04:49:00;100025.66;;;7.78;100.00
45541;BME280;31265;49.680;8.608;2023-04-02T04:51:36;100036.72;;;7.78;100.00
45541;BME280;31265;49.680;8.608;2023-04-02T04:54:11;100034.69;;;7.78;100.00
45541;BME280;31265;49.680;8.608;2023-04-02T04:56:44;100038.94;;;7.79;100.00
45541;BME280;31265;49.680;8.608;2023-04-02T04:59:19;100043.69;;;7.79;100.00
45541;BME280;31265;49.680;8.608;2023-04-02T05:01:57;100038.19;;;7.79;100.00
45541;BME280;31265;49.680;8.608;2023-04-02T05:04:32;100043.53;;;7.77;100.00
45541;BME280;31265;49.680;8.608;2023-04-02T05:07:08;100054.75;;;7.79;100.00
45541;BME280;31265;49.680;8.608;2023-04-02T05:09:44;100055.66;;;7.81;100.00
45541;BME280;31265;49.680;8.608;2023-04-02T05:12:29;100058.81;;;7.78;100.00
45541;BME280;31265;49.680;8.608;2023-04-02T05:15:11;100061.19;;;7.81;100.00
45541;BME280;31265;49.680;8.608;2023-04-02T05:17:44;100068.03;;;7.88;100.00
45541;BME280;31265;49.680;8.608;2023-04-02T05:20:21;100063.78;;;7.79;100.00
45541;BME280;31265;49.680;8.608;2023-04-02T05:22:57;100070.25;;;7.82;100.00
45541;BME280;31265;49.680;8.608;2023-04-02T05:25:31;100071.72;;;7.83;100.00
45541;BME280;31265;49.680;8.608;2023-04-02T05:28:06;100078.16;;;7.85;100.00
45541;BME280;31265;49.680;8.608;2023-04-02T05:30:45;100081.66;;;7.86;100.00
45541;BME280;31265;49.680;8.608;2023-04-02T05:33:23;100084.59;;;7.88;100.00
45541;BME280;31265;49.680;8.608;2023-04-02T05:36:00;100084.81;;;7.90;100.00
45541;BME280;31265;49.680;8.608;2023-04-02T05:38:35;100089.22;;;7.93;100.00
45541;BME280;31265;49.680;8.608;2023-04-02T05:41:11;100100.28;;;7.93;100.00
45541;BME280;31265;49.680;8.608;2023-04-02T05:43:46;100103.41;;;7.97;100.00
45541;BME280;31265;49.680;8.608;2023-04-02T05:46:17;100095.88;;;7.97;100.00
45541;BME280;31265;49.680;8.608;2023-04-02T05:48:54;100111.50;;;7.95;100.00
45541;BME280;31265;49.680;8.608;2023-04-02T05:51:29;100105.63;;;7.98;100.00
45541;BME280;31265;49.680;8.608;2023-04-02T05:54:05;100117.97;;;8.05;100.00
45541;BME280;31265;49.680;8.608;2023-04-02T05:56:45;100115.94;;;8.06;100.00
45541;BME280;31265;49.680;8.608;2023-04-02T05:59:19;100121.13;;;8.09;100.00
45541;BME280;31265;49.680;8.608;2023-04-02T06:01:52;100120.22;;;8.07;100.00
45541;BME280;31265;49.680;8.608;2023-04-02T06:04:34;100123.91;;;8.09;100.00
45541;BME280;31265;49.680;8.608;2023-04-02T06:07:09;100129.06;;;8.21;100.00
45541;BME280;31265;49.680;8.608;2023-04-02T06:09:49;100136.44;;;8.26;100.00
45541;BME280;31265;49.680;8.608;2023-04-02T06:12:27;100143.97;;;8.17;100.00
45541;BME280;31265;49.680;8.608;2023-04-02T06:14:59;100138.66;;;8.19;100.00
45541;BME280;31265;49.680;8.608;2023-04-02T06:17:33;100141.41;;;8.27;100.00
45541;BME280;31265;49.680;8.608;2023-04-02T06:20:14;100149.19;;;8.29;100.00
45541;BME280;31265;49.680;8.608;2023-04-02T06:22:47;100151.19;;;8.28;100.00
45541;BME280;31265;49.680;8.608;2023-04-02T06:25:24;100152.69;;;8.37;100.00
45541;BME280;31265;49.680;8.608;2023-04-02T06:27:57;100155.09;;;8.40;100.00
45541;BME280;31265;49.680;8.608;2023-04-02T06:30:30;100157.31;;;8.42;100.00
45541;BME280;31265;49.680;8.608;2023-04-02T06:33:00;100168.97;;;8.48;100.00
45541;BME280;31265;49.680;8.608;2023-04-02T06:35:34;100165.44;;;8.55;100.00
45541;BME280;31265;49.680;8.608;2023-04-02T06:38:13;100171.88;;;8.58;100.00
45541;BME280;31265;49.680;8.608;2023-04-02T06:40:48;100178.91;;;8.51;100.00
45541;BME280;31265;49.680;8.608;2023-04-02T06:43:36;100177.25;;;8.64;100.00
45541;BME280;31265;49.680;8.608;2023-04-02T06:46:35;100179.09;;;8.61;100.00
45541;BME280;31265;49.680;8.608;2023-04-02T06:49:16;100183.91;;;8.60;100.00
45541;BME280;31265;49.680;8.608;2023-04-02T06:51:49;100190.16;;;8.61;100.00
45541;BME280;31265;49.680;8.608;2023-04-02T06:54:20;100194.22;;;8.60;100.00
45541;BME280;31265;49.680;8.608;2023-04-02T06:56:55;100203.63;;;8.65;100.00
45541;BME280;31265;49.680;8.608;2023-04-02T06:59:30;100208.97;;;8.63;100.00
45541;BME280;31265;49.680;8.608;2023-04-02T07:02:01;100213.22;;;8.56;100.00
45541;BME280;31265;49.680;8.608;2023-04-02T07:04:33;100215.97;;;8.64;100.00
45541;BME280;31265;49.680;8.608;2023-04-02T07:07:02;100227.25;;;8.66;100.00
45541;BME280;31265;49.680;8.608;2023-04-02T07:09:35;100225.56;;;8.63;100.00
45541;BME280;31265;49.680;8.608;2023-04-02T07:12:11;100234.25;;;8.74;100.00
45541;BME280;31265;49.680;8.608;2023-04-02T07:14:41;100234.63;;;8.78;100.00
45541;BME280;31265;49.680;8.608;2023-04-02T07:17:13;100241.63;;;8.79;100.00
45541;BME280;31265;49.680;8.608;2023-04-02T07:19:44;100239.59;;;8.88;100.00
45541;BME280;31265;49.680;8.608;2023-04-02T07:22:18;100242.56;;;8.90;100.00
45541;BME280;31265;49.680;8.608;2023-04-02T07:24:53;100242.94;;;8.86;100.00
45541;BME280;31265;49.680;8.608;2023-04-02T07:27:22;100254.19;;;8.88;100.00
45541;BME280;31265;49.680;8.608;2023-04-02T07:29:50;100258.22;;;8.95;100.00
45541;BME280;31265;49.680;8.608;2023-04-02T07:32:20;100259.88;;;8.82;100.00
45541;BME280;31265;49.680;8.608;2023-04-02T07:34:51;100264.31;;;8.78;100.00
45541;BME280;31265;49.680;8.608;2023-04-02T07:37:21;100271.16;;;8.92;100.00
45541;BME280;31265;49.680;8.608;2023-04-02T07:39:50;100277.06;;;8.96;100.00
45541;BME280;31265;49.680;8.608;2023-04-02T07:42:19;100279.81;;;8.96;100.00
45541;BME280;31265;49.680;8.608;2023-04-02T07:44:51;100272.44;;;8.91;100.00
45541;BME280;31265;49.680;8.608;2023-04-02T07:47:19;100278.19;;;9.01;100.00
45541;BME280;31265;49.680;8.608;2023-04-02T07:49:49;100283.16;;;9.02;100.00
45541;BME280;31265;49.680;8.608;2023-04-02T07:52:21;100291.63;;;8.81;100.00
45541;BME280;31265;49.680;8.608;2023-04-02T07:54:49;100293.13;;;8.90;100.00
45541;BME280;31265;49.680;8.608;2023-04-02T07:57:17;100296.44;;;9.04;100.00
45541;BME280;31265;49.680;8.608;2023-04-02T07:59:47;100296.81;;;9.00;100.00
45541;BME280;31265;49.680;8.608;2023-04-02T08:02:21;100310.28;;;9.04;100.00
45541;BME280;31265;49.680;8.608;2023-04-02T08:04:50;100317.47;;;9.15;100.00
45541;BME280;31265;49.680;8.608;2023-04-02T08:07:19;100321.00;;;9.23;100.00
45541;BME280;31265;49.680;8.608;2023-04-02T08:09:47;100323.56;;;9.06;100.00
45541;BME280;31265;49.680;8.608;2023-04-02T08:12:16;100316.75;;;9.22;100.00
45541;BME280;31265;49.680;8.608;2023-04-02T08:14:44;100328.56;;;9.30;100.00
45541;BME280;31265;49.680;8.608;2023-04-02T08:17:15;100331.50;;;9.24;100.00
45541;BME280;31265;49.680;8.608;2023-04-02T08:19:44;100328.94;;;9.34;100.00
45541;BME280;31265;49.680;8.608;2023-04-02T08:22:21;100339.09;;;9.39;100.00
45541;BME280;31265;49.680;8.608;2023-04-02T08:24:51;100339.25;;;9.57;100.00
45541;BME280;31265;49.680;8.608;2023-04-02T08:27:20;100340.75;;;9.58;100.00
45541;BME280;31265;49.680;8.608;2023-04-02T08:29:48;100347.75;;;9.66;100.00
45541;BME280;31265;49.680;8.608;2023-04-02T08:32:18;100356.06;;;9.74;100.00
45541;BME280;31265;49.680;8.608;2023-04-02T08:34:50;100349.59;;;9.95;100.00
45541;BME280;31265;49.680;8.608;2023-04-02T08:37:19;100353.16;;;10.43;100.00
45541;BME280;31265;49.680;8.608;2023-04-02T08:39:48;100360.88;;;10.93;100.00
45541;BME280;31265;49.680;8.608;2023-04-02T08:42:22;100364.38;;;11.26;100.00
45541;BME280;31265;49.680;8.608;2023-04-02T08:45:04;100361.13;;;11.62;100.00
45541;BME280;31265;49.680;8.608;2023-04-02T08:47:52;100365.63;;;12.00;100.00
45541;BME280;31265;49.680;8.608;2023-04-02T08:50:30;100360.53;;;12.41;100.00
45541;BME280;31265;49.680;8.608;2023-04-02T08:53:01;100366.56;;;12.65;100.00
45541;BME280;31265;49.680;8.608;2023-04-02T08:55:35;100372.75;;;13.00;100.00
45541;BME280;31265;49.680;8.608;2023-04-02T08:58:16;100386.84;;;12.75;100.00
45541;BME280;31265;49.680;8.608;2023-04-02T09:00:52;100383.47;;;12.15;100.00
45541;BME280;31265;49.680;8.608;2023-04-02T09:03:27;100385.25;;;12.20;100.00
45541;BME280;31265;49.680;8.608;2023-04-02T09:05:58;100390.81;;;12.20;100.00
45541;BME280;31265;49.680;8.608;2023-04-02T09:08:31;100398.19;;;12.25;100.00
45541;BME280;31265;49.680;8.608;2023-04-02T09:11:06;100391.72;;;12.05;100.00
45541;BME280;31265;49.680;8.608;2023-04-02T09:13:39;100401.16;;;11.59;100.00
45541;BME280;31265;49.680;8.608;2023-04-02T09:16:11;100406.31;;;11.88;100.00
45541;BME280;31265;49.680;8.608;2023-04-02T09:18:41;100403.72;;;11.90;100.00
45541;BME280;31265;49.680;8.608;2023-04-02T09:21:28;100404.44;;;11.91;100.00
45541;BME280;31265;49.680;8.608;2023-04-02T09:23:58;100422.41;;;11.65;100.00
45541;BME280;31265;49.680;8.608;2023-04-02T09:26:28;100422.41;;;11.39;100.00
45541;BME280;31265;49.680;8.608;2023-04-02T09:29:03;100422.63;;;10.61;100.00
45541;BME280;31265;49.680;8.608;2023-04-02T09:31:39;100417.38;;;10.17;100.00
45541;BME280;31265;49.680;8.608;2023-04-02T09:34:27;100436.97;;;9.73;100.00
45541;BME280;31265;49.680;8.608;2023-04-02T09:37:05;100437.53;;;9.56;100.00
45541;BME280;31265;49.680;8.608;2023-04-02T09:39:36;100450.44;;;9.53;100.00
45541;BME280;31265;49.680;8.608;2023-04-02T09:42:06;100460.28;;;9.02;100.00
45541;BME280;31265;49.680;8.608;2023-04-02T09:44:35;100461.91;;;8.90;100.00
45541;BME280;31265;49.680;8.608;2023-04-02T09:47:05;100479.25;;;8.91;100.00
45541;BME280;31265;49.680;8.608;2023-04-02T09:49:50;100470.91;;;8.83;100.00
45541;BME280;31265;49.680;8.608;2023-04-02T09:52:26;100478.22;;;8.73;100.00
45541;BME280;31265;49.680;8.608;2023-04-02T09:55:16;100485.25;;;8.74;100.00
45541;BME280;31265;49.680;8.608;2023-04-02T09:57:46;100486.34;;;8.71;100.00
45541;BME280;31265;49.680;8.608;2023-04-02T10:00:19;100501.81;;;8.66;100.00
45541;BME280;31265;49.680;8.608;2023-04-02T10:03:01;100506.09;;;8.75;100.00
45541;BME280;31265;49.680;8.608;2023-04-02T10:05:31;100507.38;;;8.74;100.00
45541;BME280;31265;49.680;8.608;2023-04-02T10:08:17;100512.59;;;8.85;100.00
45541;BME280;31265;49.680;8.608;2023-04-02T10:10:49;100518.50;;;8.81;100.00
45541;BME280;31265;49.680;8.608;2023-04-02T10:13:23;100527.44;;;8.95;100.00
45541;BME280;31265;49.680;8.608;2023-04-02T10:15:56;100523.41;;;9.04;100.00
45541;BME280;31265;49.680;8.608;2023-04-02T10:18:35;100535.44;;;9.14;100.00
45541;BME280;31265;49.680;8.608;2023-04-02T10:21:07;100536.69;;;9.06;100.00
45541;BME280;31265;49.680;8.608;2023-04-02T10:23:39;100534.47;;;9.04;100.00
45541;BME280;31265;49.680;8.608;2023-04-02T10:26:41;100536.38;;;9.17;100.00
45541;BME280;31265;49.680;8.608;2023-04-02T10:29:29;100544.59;;;9.01;100.00
45541;BME280;31265;49.680;8.608;2023-04-02T10:32:10;100544.09;;;9.11;100.00
45541;BME280;31265;49.680;8.608;2023-04-02T10:34:45;100550.81;;;9.23;100.00
45541;BME280;31265;49.680;8.608;2023-04-02T10:37:47;100548.19;;;9.17;100.00
45541;BME280;31265;49.680;8.608;2023-04-02T10:40:26;100546.44;;;9.43;100.00
45541;BME280;31265;49.680;8.608;2023-04-02T10:43:26;100544.25;;;9.57;100.00
45541;BME280;31265;49.680;8.608;2023-04-02T10:45:59;100554.78;;;9.51;100.00
45541;BME280;31265;49.680;8.608;2023-04-02T10:48:37;100571.06;;;9.62;100.00
45541;BME280;31265;49.680;8.608;2023-04-02T10:51:12;100571.06;;;9.62;100.00
45541;BME280;31265;49.680;8.608;2023-04-02T10:53:53;100570.13;;;9.59;100.00
45541;BME280;31265;49.680;8.608;2023-04-02T10:56:27;100570.53;;;9.71;100.00
45541;BME280;31265;49.680;8.608;2023-04-02T10:59:15;100580.69;;;9.68;100.00
45541;BME280;31265;49.680;8.608;2023-04-02T11:01:46;100577.88;;;9.61;100.00
45541;BME280;31265;49.680;8.608;2023-04-02T11:04:18;100575.84;;;9.61;100.00
45541;BME280;31265;49.680;8.608;2023-04-02T11:06:52;100595.63;;;9.65;100.00
45541;BME280;31265;49.680;8.608;2023-04-02T11:09:38;100600.16;;;9.92;100.00
45541;BME280;31265;49.680;8.608;2023-04-02T11:12:17;100595.94;;;10.21;100.00
45541;BME280;31265;49.680;8.608;2023-04-02T11:14:48;100602.38;;;10.01;100.00
45541;BME280;31265;49.680;8.608;2023-04-02T11:17:18;100604.91;;;9.83;100.00
45541;BME280;31265;49.680;8.608;2023-04-02T11:19:47;100612.31;;;9.88;100.00
45541;BME280;31265;49.680;8.608;2023-04-02T11:22:17;100612.72;;;9.93;100.00
45541;BME280;31265;49.680;8.608;2023-04-02T11:24:50;100624.50;;;9.85;100.00
45541;BME280;31265;49.680;8.608;2023-04-02T11:27:25;100630.97;;;9.88;100.00
45541;BME280;31265;49.680;8.608;2023-04-02T11:30:02;100632.47;;;9.89;100.00
45541;BME280;31265;49.680;8.608;2023-04-02T11:32:37;100634.66;;;9.83;100.00
45541;BME280;31265;49.680;8.608;2023-04-02T11:35:35;100640.91;;;9.68;100.00
45541;BME280;31265;49.680;8.608;2023-04-02T11:42:01;100655.88;;;9.73;100.00
45541;BME280;31265;49.680;8.608;2023-04-02T11:44:31;100659.59;;;9.83;100.00
45541;BME280;31265;49.680;8.608;2023-04-02T11:47:14;100654.84;;;9.99;100.00
45541;BME280;31265;49.680;8.608;2023-04-02T11:50:19;100666.91;;;10.09;100.00
45541;BME280;31265;49.680;8.608;2023-04-02T11:52:57;100665.97;;;10.06;100.00
45541;BME280;31265;49.680;8.608;2023-04-02T11:55:29;100671.59;;;10.37;100.00
45541;BME280;31265;49.680;8.608;2023-04-02T11:58:22;100678.25;;;10.34;100.00
45541;BME280;31265;49.680;8.608;2023-04-02T12:01:19;100678.75;;;10.25;100.00
45541;BME280;31265;49.680;8.608;2023-04-02T12:04:11;100686.47;;;10.11;100.00
45541;BME280;31265;49.680;8.608;2023-04-02T12:06:52;100691.97;;;9.96;100.00
45541;BME280;31265;49.680;8.608;2023-04-02T12:09:27;100695.94;;;10.23;100.00
45541;BME280;31265;49.680;8.608;2023-04-02T12:11:58;100696.44;;;9.99;100.00
45541;BME280;31265;49.680;8.608;2023-04-02T12:14:36;100698.41;;;9.83;100.00
45541;BME280;31265;49.680;8.608;2023-04-02T12:17:20;100701.34;;;9.77;100.00
45541;BME280;31265;49.680;8.608;2023-04-02T12:19:56;100702.03;;;9.62;100.00
45541;BME280;31265;49.680;8.608;2023-04-02T12:22:27;100705.03;;;9.72;100.00
45541;BME280;31265;49.680;8.608;2023-04-02T12:24:58;100714.34;;;9.54;100.00
45541;BME280;31265;49.680;8.608;2023-04-02T12:27:28;100724.03;;;9.68;100.00
45541;BME280;31265;49.680;8.608;2023-04-02T12:30:11;100725.72;;;9.79;100.00
45541;BME280;31265;49.680;8.608;2023-04-02T12:32:42;100734.38;;;9.67;100.00
45541;BME280;31265;49.680;8.608;2023-04-02T12:35:24;100739.53;;;9.71;100.00
45541;BME280;31265;49.680;8.608;2023-04-02T12:37:54;100743.28;;;9.81;100.00
45541;BME280;31265;49.680;8.608;2023-04-02T12:40:24;100751.22;;;9.77;100.00
45541;BME280;31265;49.680;8.608;2023-04-02T12:42:53;100759.50;;;9.69;100.00
45541;BME280;31265;49.680;8.608;2023-04-02T12:45:23;100755.75;;;9.96;100.00
45541;BME280;31265;49.680;8.608;2023-04-02T12:47:59;100749.34;;;10.16;100.00
45541;BME280;31265;49.680;8.608;2023-04-02T12:50:32;100752.81;;;10.01;100.00
45541;BME280;31265;49.680;8.608;2023-04-02T12:53:01;100760.63;;;10.18;100.00
45541;BME280;31265;49.680;8.608;2023-04-02T12:55:30;100770.59;;;10.13;100.00
45541;BME280;31265;49.680;8.608;2023-04-02T12:57:59;100761.19;;;9.73;100.00
45541;BME280;31265;49.680;8.608;2023-04-02T13:00:33;100766.13;;;9.66;100.00
45541;BME280;31265;49.680;8.608;2023-04-02T13:03:17;100769.22;;;9.92;100.00
45541;BME280;31265;49.680;8.608;2023-04-02T13:05:50;100772.34;;;9.88;100.00
45541;BME280;31265;49.680;8.608;2023-04-02T13:08:24;100777.06;;;9.72;100.00
45541;BME280;31265;49.680;8.608;2023-04-02T13:10:55;100779.28;;;9.45;100.00
45541;BME280;31265;49.680;8.608;2023-04-02T13:13:28;100785.69;;;9.32;100.00
45541;BME280;31265;49.680;8.608;2023-04-02T13:16:18;100786.63;;;9.14;100.00
45541;BME280;31265;49.680;8.608;2023-04-02T13:19:08;100792.41;;;9.02;100.00
45541;BME280;31265;49.680;8.608;2023-04-02T13:21:36;100791.28;;;8.98;100.00
45541;BME280;31265;49.680;8.608;2023-04-02T13:24:15;100795.88;;;8.95;100.00
45541;BME280;31265;49.680;8.608;2023-04-02T13:26:44;100801.25;;;8.80;100.00
45541;BME280;31265;49.680;8.608;2023-04-02T13:29:18;100805.75;;;8.70;100.00
45541;BME280;31265;49.680;8.608;2023-04-02T13:31:48;100800.00;;;8.47;100.00
45541;BME280;31265;49.680;8.608;2023-04-02T13:34:18;100805.66;;;8.41;100.00
45541;BME280;31265;49.680;8.608;2023-04-02T13:36:48;100809.25;;;8.23;100.00
45541;BME280;31265;49.680;8.608;2023-04-02T13:39:17;100818.19;;;8.29;100.00
45541;BME280;31265;49.680;8.608;2023-04-02T13:41:49;100820.97;;;8.29;100.00